sensor_id;sensor_type;location;lat;lon;timestamp;P1;durP1;ratioP1;P2;durP2;ratioP2
76053;SDS011;64752;48.870;9.082;2023-09-19T00:00:22;3.00;;;1.27;;
76053;SDS011;64752;48.870;9.082;2023-09-19T00:02:52;3.10;;;1.20;;
76053;SDS011;64752;48.870;9.082;2023-09-19T00:05:24;2.17;;;1.00;;
76053;SDS011;64752;48.870;9.082;2023-09-19T00:07:52;1.75;;;1.05;;
76053;SDS011;64752;48.870;9.082;2023-09-19T00:10:19;1.45;;;1.00;;
76053;SDS011;64752;48.870;9.082;2023-09-19T00:12:46;3.45;;;1.00;;
76053;SDS011;64752;48.870;9.082;2023-09-19T00:15:13;3.47;;;1.20;;
76053;SDS011;64752;48.870;9.082;2023-09-19T00:17:38;1.67;;;1.20;;
76053;SDS011;64752;48.870;9.082;2023-09-19T00:20:05;2.72;;;1.17;;
76053;SDS011;64752;48.870;9.082;2023-09-19T00:22:40;3.58;;;1.50;;
76053;SDS011;64752;48.870;9.082;2023-09-19T00:25:09;5.38;;;1.20;;
76053;SDS011;64752;48.870;9.082;2023-09-19T00:27:36;2.40;;;1.00;;
76053;SDS011;64752;48.870;9.082;2023-09-19T00:30:05;2.10;;;0.85;;
76053;SDS011;64752;48.870;9.082;2023-09-19T00:32:33;2.25;;;1.10;;
76053;SDS011;64752;48.870;9.082;2023-09-19T00:34:58;1.60;;;0.95;;
76053;SDS011;64752;48.870;9.082;2023-09-19T00:37:24;4.50;;;1.40;;
76053;SDS011;64752;48.870;9.082;2023-09-19T00:39:49;3.23;;;1.10;;
76053;SDS011;64752;48.870;9.082;2023-09-19T00:42:21;1.40;;;1.30;;
76053;SDS011;64752;48.870;9.082;2023-09-19T00:44:46;2.78;;;1.10;;
76053;SDS011;64752;48.870;9.082;2023-09-19T00:47:12;1.45;;;1.02;;
76053;SDS011;64752;48.870;9.082;2023-09-19T00:49:45;1.55;;;1.10;;
76053;SDS011;64752;48.870;9.082;2023-09-19T00:52:14;2.33;;;1.00;;
76053;SDS011;64752;48.870;9.082;2023-09-19T00:54:41;1.95;;;1.10;;
76053;SDS011;64752;48.870;9.082;2023-09-19T00:57:06;3.90;;;1.10;;
76053;SDS011;64752;48.870;9.082;2023-09-19T00:59:33;3.25;;;1.20;;
76053;SDS011;64752;48.870;9.082;2023-09-19T01:02:00;5.20;;;0.98;;
76053;SDS011;64752;48.870;9.082;2023-09-19T01:04:27;4.43;;;1.10;;
76053;SDS011;64752;48.870;9.082;2023-09-19T01:06:54;2.40;;;1.10;;
76053;SDS011;64752;48.870;9.082;2023-09-19T01:09:20;1.97;;;1.10;;
76053;SDS011;64752;48.870;9.082;2023-09-19T01:11:46;1.30;;;0.98;;
76053;SDS011;64752;48.870;9.082;2023-09-19T01:17:08;1.55;;;1.02;;
76053;SDS011;64752;48.870;9.082;2023-09-19T01:25:39;2.78;;;1.00;;
76053;SDS011;64752;48.870;9.082;2023-09-19T01:28:30;0.65;;;0.65;;
76053;SDS011;64752;48.870;9.082;2023-09-19T01:30:56;1.52;;;1.00;;
76053;SDS011;64752;48.870;9.082;2023-09-19T01:33:24;3.10;;;1.10;;
76053;SDS011;64752;48.870;9.082;2023-09-19T01:35:50;3.65;;;1.23;;
76053;SDS011;64752;48.870;9.082;2023-09-19T01:38:17;2.45;;;1.05;;
76053;SDS011;64752;48.870;9.082;2023-09-19T01:40:48;3.53;;;1.10;;
76053;SDS011;64752;48.870;9.082;2023-09-19T01:43:37;1.73;;;0.93;;
76053;SDS011;64752;48.870;9.082;2023-09-19T01:46:13;2.10;;;0.85;;
76053;SDS011;64752;48.870;9.082;2023-09-19T01:48:49;3.03;;;1.17;;
76053;SDS011;64752;48.870;9.082;2023-09-19T01:52:13;2.38;;;1.10;;
76053;SDS011;64752;48.870;9.082;2023-09-19T01:54:40;1.30;;;0.88;;
76053;SDS011;64752;48.870;9.082;2023-09-19T01:57:15;3.65;;;1.08;;
76053;SDS011;64752;48.870;9.082;2023-09-19T02:00:13;1.77;;;0.98;;
76053;SDS011;64752;48.870;9.082;2023-09-19T02:02:45;1.65;;;0.80;;
76053;SDS011;64752;48.870;9.082;2023-09-19T02:05:22;1.55;;;1.00;;
76053;SDS011;64752;48.870;9.082;2023-09-19T02:07:52;2.25;;;1.10;;
76053;SDS011;64752;48.870;9.082;2023-09-19T02:10:18;1.30;;;0.90;;
76053;SDS011;64752;48.870;9.082;2023-09-19T02:12:44;2.85;;;1.15;;
76053;SDS011;64752;48.870;9.082;2023-09-19T02:15:10;4.40;;;0.90;;
76053;SDS011;64752;48.870;9.082;2023-09-19T02:17:35;1.98;;;0.93;;
76053;SDS011;64752;48.870;9.082;2023-09-19T02:20:01;4.17;;;1.37;;
76053;SDS011;64752;48.870;9.082;2023-09-19T02:22:27;3.20;;;1.10;;
76053;SDS011;64752;48.870;9.082;2023-09-19T02:24:53;1.50;;;1.10;;
76053;SDS011;64752;48.870;9.082;2023-09-19T02:27:18;3.30;;;1.20;;
76053;SDS011;64752;48.870;9.082;2023-09-19T02:29:44;2.22;;;1.27;;
76053;SDS011;64752;48.870;9.082;2023-09-19T02:32:10;2.70;;;1.00;;
76053;SDS011;64752;48.870;9.082;2023-09-19T02:34:35;3.38;;;1.10;;
76053;SDS011;64752;48.870;9.082;2023-09-19T02:37:02;3.65;;;1.10;;
76053;SDS011;64752;48.870;9.082;2023-09-19T02:39:30;2.45;;;1.00;;
76053;SDS011;64752;48.870;9.082;2023-09-19T02:41:55;4.50;;;1.17;;
76053;SDS011;64752;48.870;9.082;2023-09-19T02:44:21;1.73;;;1.30;;
76053;SDS011;64752;48.870;9.082;2023-09-19T02:46:46;2.80;;;1.08;;
76053;SDS011;64752;48.870;9.082;2023-09-19T02:49:12;7.77;;;1.10;;
76053;SDS011;64752;48.870;9.082;2023-09-19T02:51:38;3.87;;;1.10;;
76053;SDS011;64752;48.870;9.082;2023-09-19T02:54:03;1.17;;;1.08;;
76053;SDS011;64752;48.870;9.082;2023-09-19T02:56:29;2.20;;;1.10;;
76053;SDS011;64752;48.870;9.082;2023-09-19T02:58:55;3.22;;;1.20;;
76053;SDS011;64752;48.870;9.082;2023-09-19T03:01:21;2.30;;;1.10;;
76053;SDS011;64752;48.870;9.082;2023-09-19T03:03:47;4.50;;;1.07;;
76053;SDS011;64752;48.870;9.082;2023-09-19T03:06:12;2.13;;;1.00;;
76053;SDS011;64752;48.870;9.082;2023-09-19T03:08:38;1.63;;;0.90;;
76053;SDS011;64752;48.870;9.082;2023-09-19T03:11:05;2.83;;;1.20;;
76053;SDS011;64752;48.870;9.082;2023-09-19T03:13:31;2.40;;;0.90;;
76053;SDS011;64752;48.870;9.082;2023-09-19T03:15:57;1.63;;;1.00;;
76053;SDS011;64752;48.870;9.082;2023-09-19T03:18:26;2.63;;;1.17;;
76053;SDS011;64752;48.870;9.082;2023-09-19T03:20:55;4.20;;;1.10;;
76053;SDS011;64752;48.870;9.082;2023-09-19T03:23:21;1.17;;;0.90;;
76053;SDS011;64752;48.870;9.082;2023-09-19T03:25:46;3.67;;;1.30;;
76053;SDS011;64752;48.870;9.082;2023-09-19T03:28:12;1.83;;;0.90;;
76053;SDS011;64752;48.870;9.082;2023-09-19T03:30:38;1.20;;;1.10;;
76053;SDS011;64752;48.870;9.082;2023-09-19T03:33:04;3.15;;;1.20;;
76053;SDS011;64752;48.870;9.082;2023-09-19T03:35:29;3.50;;;1.27;;
76053;SDS011;64752;48.870;9.082;2023-09-19T03:37:56;1.30;;;0.93;;
76053;SDS011;64752;48.870;9.082;2023-09-19T03:40:24;3.28;;;1.30;;
76053;SDS011;64752;48.870;9.082;2023-09-19T03:42:51;2.70;;;1.17;;
76053;SDS011;64752;48.870;9.082;2023-09-19T03:45:16;1.07;;;0.97;;
76053;SDS011;64752;48.870;9.082;2023-09-19T03:47:43;2.08;;;1.40;;
76053;SDS011;64752;48.870;9.082;2023-09-19T03:50:09;2.30;;;1.43;;
76053;SDS011;64752;48.870;9.082;2023-09-19T03:52:40;3.17;;;1.45;;
76053;SDS011;64752;48.870;9.082;2023-09-19T03:55:06;6.30;;;1.55;;
76053;SDS011;64752;48.870;9.082;2023-09-19T03:57:31;2.63;;;1.40;;
76053;SDS011;64752;48.870;9.082;2023-09-19T03:59:57;3.25;;;1.20;;
76053;SDS011;64752;48.870;9.082;2023-09-19T04:02:23;3.10;;;1.52;;
76053;SDS011;64752;48.870;9.082;2023-09-19T04:04:53;5.47;;;1.10;;
76053;SDS011;64752;48.870;9.082;2023-09-19T04:07:19;6.07;;;1.33;;
76053;SDS011;64752;48.870;9.082;2023-09-19T04:09:47;6.00;;;1.45;;
76053;SDS011;64752;48.870;9.082;2023-09-19T04:12:14;1.50;;;1.00;;
76053;SDS011;64752;48.870;9.082;2023-09-19T04:14:41;2.58;;;1.20;;
76053;SDS011;64752;48.870;9.082;2023-09-19T04:17:07;5.38;;;1.50;;
76053;SDS011;64752;48.870;9.082;2023-09-19T04:19:32;2.88;;;1.38;;
76053;SDS011;64752;48.870;9.082;2023-09-19T04:21:58;2.30;;;1.37;;
76053;SDS011;64752;48.870;9.082;2023-09-19T04:24:24;8.90;;;1.67;;
76053;SDS011;64752;48.870;9.082;2023-09-19T04:26:49;2.47;;;1.53;;
76053;SDS011;64752;48.870;9.082;2023-09-19T04:29:14;4.30;;;1.43;;
76053;SDS011;64752;48.870;9.082;2023-09-19T04:31:40;7.20;;;1.88;;
76053;SDS011;64752;48.870;9.082;2023-09-19T04:34:08;6.00;;;1.52;;
76053;SDS011;64752;48.870;9.082;2023-09-19T04:36:35;3.78;;;1.50;;
76053;SDS011;64752;48.870;9.082;2023-09-19T04:39:02;2.88;;;1.45;;
76053;SDS011;64752;48.870;9.082;2023-09-19T04:41:30;3.35;;;1.20;;
76053;SDS011;64752;48.870;9.082;2023-09-19T04:43:55;1.80;;;1.38;;
76053;SDS011;64752;48.870;9.082;2023-09-19T04:46:20;2.47;;;1.60;;
76053;SDS011;64752;48.870;9.082;2023-09-19T04:48:46;2.97;;;1.50;;
76053;SDS011;64752;48.870;9.082;2023-09-19T04:51:11;3.53;;;1.50;;
76053;SDS011;64752;48.870;9.082;2023-09-19T04:53:38;2.42;;;1.27;;
76053;SDS011;64752;48.870;9.082;2023-09-19T04:56:04;2.70;;;1.77;;
76053;SDS011;64752;48.870;9.082;2023-09-19T04:58:31;4.50;;;1.70;;
76053;SDS011;64752;48.870;9.082;2023-09-19T05:00:57;3.78;;;2.08;;
76053;SDS011;64752;48.870;9.082;2023-09-19T05:03:23;6.00;;;2.87;;
76053;SDS011;64752;48.870;9.082;2023-09-19T05:05:48;4.50;;;2.15;;
76053;SDS011;64752;48.870;9.082;2023-09-19T05:08:14;3.53;;;2.00;;
76053;SDS011;64752;48.870;9.082;2023-09-19T05:10:40;3.38;;;2.30;;
76053;SDS011;64752;48.870;9.082;2023-09-19T05:13:05;3.28;;;2.03;;
76053;SDS011;64752;48.870;9.082;2023-09-19T05:15:33;3.50;;;1.95;;
76053;SDS011;64752;48.870;9.082;2023-09-19T05:18:00;4.47;;;1.80;;
76053;SDS011;64752;48.870;9.082;2023-09-19T05:40:34;5.97;;;1.88;;
76053;SDS011;64752;48.870;9.082;2023-09-19T05:43:00;8.65;;;2.33;;
76053;SDS011;64752;48.870;9.082;2023-09-19T05:45:26;5.23;;;2.07;;
76053;SDS011;64752;48.870;9.082;2023-09-19T05:47:52;2.83;;;2.00;;
76053;SDS011;64752;48.870;9.082;2023-09-19T05:50:26;5.72;;;1.90;;
76053;SDS011;64752;48.870;9.082;2023-09-19T05:52:51;6.03;;;2.03;;
76053;SDS011;64752;48.870;9.082;2023-09-19T05:55:18;4.40;;;1.90;;
76053;SDS011;64752;48.870;9.082;2023-09-19T05:57:43;3.30;;;2.05;;
76053;SDS011;64752;48.870;9.082;2023-09-19T06:00:15;5.10;;;2.00;;
76053;SDS011;64752;48.870;9.082;2023-09-19T06:02:42;4.85;;;2.03;;
76053;SDS011;64752;48.870;9.082;2023-09-19T06:07:35;4.68;;;2.38;;
76053;SDS011;64752;48.870;9.082;2023-09-19T06:10:05;5.22;;;2.22;;
76053;SDS011;64752;48.870;9.082;2023-09-19T06:12:32;4.47;;;2.33;;
76053;SDS011;64752;48.870;9.082;2023-09-19T06:14:59;4.50;;;2.17;;
76053;SDS011;64752;48.870;9.082;2023-09-19T06:17:25;8.45;;;2.25;;
76053;SDS011;64752;48.870;9.082;2023-09-19T06:19:52;6.10;;;2.00;;
76053;SDS011;64752;48.870;9.082;2023-09-19T06:22:17;5.47;;;1.88;;
76053;SDS011;64752;48.870;9.082;2023-09-19T06:24:45;5.65;;;2.20;;
76053;SDS011;64752;48.870;9.082;2023-09-19T06:27:12;6.45;;;2.35;;
76053;SDS011;64752;48.870;9.082;2023-09-19T06:29:38;7.03;;;2.10;;
76053;SDS011;64752;48.870;9.082;2023-09-19T06:32:07;4.67;;;1.67;;
76053;SDS011;64752;48.870;9.082;2023-09-19T06:34:33;2.67;;;1.75;;
76053;SDS011;64752;48.870;9.082;2023-09-19T06:37:03;4.55;;;1.90;;
76053;SDS011;64752;48.870;9.082;2023-09-19T06:39:30;6.55;;;1.80;;
76053;SDS011;64752;48.870;9.082;2023-09-19T06:41:56;3.45;;;1.80;;
76053;SDS011;64752;48.870;9.082;2023-09-19T06:44:22;5.63;;;1.97;;
76053;SDS011;64752;48.870;9.082;2023-09-19T06:46:49;4.85;;;1.80;;
76053;SDS011;64752;48.870;9.082;2023-09-19T06:51:42;4.25;;;1.55;;
76053;SDS011;64752;48.870;9.082;2023-09-19T06:54:08;7.90;;;1.60;;
76053;SDS011;64752;48.870;9.082;2023-09-19T06:56:33;4.70;;;1.80;;
76053;SDS011;64752;48.870;9.082;2023-09-19T06:59:01;5.63;;;1.80;;
76053;SDS011;64752;48.870;9.082;2023-09-19T07:01:28;4.63;;;1.80;;
76053;SDS011;64752;48.870;9.082;2023-09-19T07:03:53;3.20;;;1.60;;
76053;SDS011;64752;48.870;9.082;2023-09-19T07:06:19;6.10;;;1.80;;
76053;SDS011;64752;48.870;9.082;2023-09-19T07:08:45;6.33;;;2.30;;
76053;SDS011;64752;48.870;9.082;2023-09-19T07:11:10;5.93;;;1.67;;
76053;SDS011;64752;48.870;9.082;2023-09-19T07:16:03;3.55;;;1.75;;
76053;SDS011;64752;48.870;9.082;2023-09-19T07:18:29;4.87;;;1.67;;
76053;SDS011;64752;48.870;9.082;2023-09-19T07:20:57;4.90;;;1.90;;
76053;SDS011;64752;48.870;9.082;2023-09-19T07:23:29;2.55;;;1.40;;
76053;SDS011;64752;48.870;9.082;2023-09-19T07:25:59;5.65;;;1.92;;
76053;SDS011;64752;48.870;9.082;2023-09-19T07:28:30;5.63;;;2.10;;
76053;SDS011;64752;48.870;9.082;2023-09-19T07:30:56;7.97;;;2.57;;
76053;SDS011;64752;48.870;9.082;2023-09-19T07:33:21;6.57;;;2.00;;
76053;SDS011;64752;48.870;9.082;2023-09-19T07:35:47;4.67;;;1.73;;
76053;SDS011;64752;48.870;9.082;2023-09-19T07:38:13;6.55;;;1.77;;
76053;SDS011;64752;48.870;9.082;2023-09-19T07:40:39;3.87;;;1.73;;
76053;SDS011;64752;48.870;9.082;2023-09-19T07:43:04;3.70;;;1.73;;
76053;SDS011;64752;48.870;9.082;2023-09-19T07:45:32;4.75;;;1.60;;
76053;SDS011;64752;48.870;9.082;2023-09-19T07:47:57;3.77;;;1.60;;
76053;SDS011;64752;48.870;9.082;2023-09-19T07:50:23;4.70;;;1.77;;
76053;SDS011;64752;48.870;9.082;2023-09-19T07:52:49;3.40;;;1.40;;
76053;SDS011;64752;48.870;9.082;2023-09-19T07:55:18;2.58;;;1.45;;
76053;SDS011;64752;48.870;9.082;2023-09-19T08:00:10;6.07;;;1.95;;
76053;SDS011;64752;48.870;9.082;2023-09-19T08:02:37;5.17;;;1.80;;
76053;SDS011;64752;48.870;9.082;2023-09-19T08:05:06;6.65;;;1.33;;
76053;SDS011;64752;48.870;9.082;2023-09-19T08:07:39;4.15;;;1.50;;
76053;SDS011;64752;48.870;9.082;2023-09-19T08:10:06;3.50;;;1.30;;
76053;SDS011;64752;48.870;9.082;2023-09-19T08:12:33;3.47;;;1.25;;
76053;SDS011;64752;48.870;9.082;2023-09-19T08:15:01;1.48;;;1.10;;
76053;SDS011;64752;48.870;9.082;2023-09-19T08:17:27;3.92;;;1.42;;
76053;SDS011;64752;48.870;9.082;2023-09-19T08:19:53;2.53;;;1.37;;
76053;SDS011;64752;48.870;9.082;2023-09-19T08:22:19;2.60;;;1.33;;
76053;SDS011;64752;48.870;9.082;2023-09-19T08:24:45;3.03;;;1.15;;
76053;SDS011;64752;48.870;9.082;2023-09-19T08:27:11;1.98;;;1.08;;
76053;SDS011;64752;48.870;9.082;2023-09-19T08:29:37;3.78;;;1.33;;
76053;SDS011;64752;48.870;9.082;2023-09-19T08:32:03;8.65;;;2.08;;
76053;SDS011;64752;48.870;9.082;2023-09-19T08:34:29;4.10;;;1.70;;
76053;SDS011;64752;48.870;9.082;2023-09-19T08:36:57;2.88;;;1.08;;
76053;SDS011;64752;48.870;9.082;2023-09-19T08:39:23;1.73;;;1.07;;
76053;SDS011;64752;48.870;9.082;2023-09-19T08:41:49;6.10;;;1.42;;
76053;SDS011;64752;48.870;9.082;2023-09-19T08:44:15;5.00;;;1.40;;
76053;SDS011;64752;48.870;9.082;2023-09-19T08:46:41;2.50;;;1.13;;
76053;SDS011;64752;48.870;9.082;2023-09-19T08:49:19;3.83;;;1.42;;
76053;SDS011;64752;48.870;9.082;2023-09-19T08:51:58;3.17;;;1.20;;
76053;SDS011;64752;48.870;9.082;2023-09-19T08:54:32;8.13;;;1.92;;
76053;SDS011;64752;48.870;9.082;2023-09-19T08:57:00;3.47;;;1.02;;
76053;SDS011;64752;48.870;9.082;2023-09-19T08:59:33;1.95;;;1.35;;
76053;SDS011;64752;48.870;9.082;2023-09-19T09:02:00;1.98;;;0.88;;
76053;SDS011;64752;48.870;9.082;2023-09-19T09:04:26;2.47;;;1.30;;
76053;SDS011;64752;48.870;9.082;2023-09-19T09:06:52;1.58;;;0.88;;
76053;SDS011;64752;48.870;9.082;2023-09-19T09:09:20;2.85;;;1.30;;
76053;SDS011;64752;48.870;9.082;2023-09-19T09:11:47;3.28;;;1.10;;
76053;SDS011;64752;48.870;9.082;2023-09-19T09:14:16;2.95;;;1.33;;
76053;SDS011;64752;48.870;9.082;2023-09-19T09:16:42;2.47;;;1.08;;
76053;SDS011;64752;48.870;9.082;2023-09-19T09:19:07;2.93;;;1.20;;
76053;SDS011;64752;48.870;9.082;2023-09-19T09:21:33;4.33;;;1.47;;
76053;SDS011;64752;48.870;9.082;2023-09-19T09:29:49;3.92;;;1.25;;
76053;SDS011;64752;48.870;9.082;2023-09-19T09:34:43;5.38;;;1.40;;
76053;SDS011;64752;48.870;9.082;2023-09-19T09:37:22;5.10;;;1.40;;
76053;SDS011;64752;48.870;9.082;2023-09-19T09:39:52;2.67;;;1.20;;
76053;SDS011;64752;48.870;9.082;2023-09-19T09:42:30;2.08;;;1.23;;
76053;SDS011;64752;48.870;9.082;2023-09-19T09:45:12;4.50;;;1.30;;
76053;SDS011;64752;48.870;9.082;2023-09-19T09:47:56;1.95;;;1.30;;
76053;SDS011;64752;48.870;9.082;2023-09-19T09:52:54;1.98;;;1.00;;
76053;SDS011;64752;48.870;9.082;2023-09-19T09:55:27;5.00;;;1.38;;
76053;SDS011;64752;48.870;9.082;2023-09-19T10:00:53;3.40;;;1.30;;
76053;SDS011;64752;48.870;9.082;2023-09-19T10:03:34;1.90;;;1.17;;
76053;SDS011;64752;48.870;9.082;2023-09-19T10:06:04;4.90;;;1.60;;
76053;SDS011;64752;48.870;9.082;2023-09-19T10:09:19;3.42;;;1.20;;
76053;SDS011;64752;48.870;9.082;2023-09-19T10:11:48;3.80;;;1.27;;
76053;SDS011;64752;48.870;9.082;2023-09-19T10:14:37;2.88;;;1.10;;
76053;SDS011;64752;48.870;9.082;2023-09-19T10:17:06;3.25;;;1.30;;
76053;SDS011;64752;48.870;9.082;2023-09-19T10:22:29;2.50;;;1.40;;
76053;SDS011;64752;48.870;9.082;2023-09-19T10:24:57;2.85;;;1.20;;
76053;SDS011;64752;48.870;9.082;2023-09-19T10:27:25;3.75;;;1.05;;
76053;SDS011;64752;48.870;9.082;2023-09-19T10:29:51;2.95;;;1.05;;
76053;SDS011;64752;48.870;9.082;2023-09-19T10:32:22;2.58;;;1.23;;
76053;SDS011;64752;48.870;9.082;2023-09-19T10:37:14;3.83;;;1.08;;
76053;SDS011;64752;48.870;9.082;2023-09-19T10:39:41;3.30;;;1.30;;
76053;SDS011;64752;48.870;9.082;2023-09-19T10:42:11;2.55;;;1.10;;
76053;SDS011;64752;48.870;9.082;2023-09-19T10:44:43;2.92;;;1.17;;
76053;SDS011;64752;48.870;9.082;2023-09-19T10:47:10;1.98;;;0.90;;
76053;SDS011;64752;48.870;9.082;2023-09-19T10:49:43;4.67;;;1.10;;
76053;SDS011;64752;48.870;9.082;2023-09-19T10:52:11;3.45;;;1.25;;
76053;SDS011;64752;48.870;9.082;2023-09-19T10:54:45;3.60;;;1.10;;
76053;SDS011;64752;48.870;9.082;2023-09-19T10:57:23;3.20;;;1.10;;
76053;SDS011;64752;48.870;9.082;2023-09-19T11:00:02;2.35;;;1.10;;
76053;SDS011;64752;48.870;9.082;2023-09-19T11:05:36;4.40;;;1.38;;
76053;SDS011;64752;48.870;9.082;2023-09-19T11:08:06;1.33;;;0.98;;
76053;SDS011;64752;48.870;9.082;2023-09-19T11:10:48;3.40;;;1.20;;
76053;SDS011;64752;48.870;9.082;2023-09-19T11:13:31;3.50;;;1.15;;
76053;SDS011;64752;48.870;9.082;2023-09-19T11:26:47;3.30;;;1.75;;
76053;SDS011;64752;48.870;9.082;2023-09-19T11:29:29;3.47;;;1.42;;
76053;SDS011;64752;48.870;9.082;2023-09-19T11:31:56;6.00;;;1.25;;
76053;SDS011;64752;48.870;9.082;2023-09-19T11:39:42;3.05;;;1.00;;
76053;SDS011;64752;48.870;9.082;2023-09-19T11:42:44;5.70;;;1.85;;
76053;SDS011;64752;48.870;9.082;2023-09-19T11:48:15;3.28;;;1.27;;
76053;SDS011;64752;48.870;9.082;2023-09-19T11:50:43;2.85;;;1.35;;
76053;SDS011;64752;48.870;9.082;2023-09-19T11:53:13;5.57;;;1.30;;
76053;SDS011;64752;48.870;9.082;2023-09-19T11:55:42;3.55;;;1.40;;
76053;SDS011;64752;48.870;9.082;2023-09-19T11:58:08;1.73;;;0.98;;
76053;SDS011;64752;48.870;9.082;2023-09-19T12:00:35;4.38;;;1.77;;
76053;SDS011;64752;48.870;9.082;2023-09-19T12:03:06;3.20;;;1.40;;
76053;SDS011;64752;48.870;9.082;2023-09-19T12:05:34;3.47;;;1.30;;
76053;SDS011;64752;48.870;9.082;2023-09-19T12:08:02;2.90;;;1.17;;
76053;SDS011;64752;48.870;9.082;2023-09-19T12:10:28;3.67;;;1.60;;
76053;SDS011;64752;48.870;9.082;2023-09-19T12:12:53;3.40;;;1.27;;
76053;SDS011;64752;48.870;9.082;2023-09-19T12:15:24;2.55;;;1.17;;
76053;SDS011;64752;48.870;9.082;2023-09-19T12:17:54;3.67;;;1.30;;
76053;SDS011;64752;48.870;9.082;2023-09-19T12:20:19;2.17;;;1.02;;
76053;SDS011;64752;48.870;9.082;2023-09-19T12:22:46;3.40;;;1.08;;
76053;SDS011;64752;48.870;9.082;2023-09-19T12:25:12;1.08;;;1.00;;
76053;SDS011;64752;48.870;9.082;2023-09-19T12:27:44;1.90;;;0.95;;
76053;SDS011;64752;48.870;9.082;2023-09-19T12:30:14;2.67;;;1.57;;
76053;SDS011;64752;48.870;9.082;2023-09-19T12:32:42;1.98;;;1.17;;
76053;SDS011;64752;48.870;9.082;2023-09-19T12:37:37;2.88;;;1.30;;
76053;SDS011;64752;48.870;9.082;2023-09-19T12:40:10;3.13;;;1.20;;
76053;SDS011;64752;48.870;9.082;2023-09-19T12:42:42;5.35;;;1.50;;
76053;SDS011;64752;48.870;9.082;2023-09-19T12:45:09;2.50;;;1.17;;
76053;SDS011;64752;48.870;9.082;2023-09-19T12:47:38;3.00;;;1.10;;
76053;SDS011;64752;48.870;9.082;2023-09-19T12:52:41;5.40;;;1.80;;
76053;SDS011;64752;48.870;9.082;2023-09-19T12:58:07;2.03;;;1.00;;
76053;SDS011;64752;48.870;9.082;2023-09-19T13:00:44;3.40;;;1.13;;
76053;SDS011;64752;48.870;9.082;2023-09-19T13:06:13;3.13;;;1.00;;
76053;SDS011;64752;48.870;9.082;2023-09-19T13:08:35;3.10;;;1.00;;
76053;SDS011;64752;48.870;9.082;2023-09-19T13:11:13;3.88;;;1.25;;
76053;SDS011;64752;48.870;9.082;2023-09-19T13:13:46;6.43;;;1.98;;
76053;SDS011;64752;48.870;9.082;2023-09-19T13:16:20;1.63;;;1.10;;
76053;SDS011;64752;48.870;9.082;2023-09-19T13:18:53;3.03;;;1.08;;
76053;SDS011;64752;48.870;9.082;2023-09-19T13:23:55;2.80;;;1.10;;
76053;SDS011;64752;48.870;9.082;2023-09-19T13:26:27;6.30;;;2.60;;
76053;SDS011;64752;48.870;9.082;2023-09-19T13:28:56;2.72;;;1.33;;
76053;SDS011;64752;48.870;9.082;2023-09-19T13:31:21;2.37;;;1.07;;
76053;SDS011;64752;48.870;9.082;2023-09-19T13:36:13;2.58;;;1.20;;
76053;SDS011;64752;48.870;9.082;2023-09-19T13:38:42;3.27;;;1.27;;
76053;SDS011;64752;48.870;9.082;2023-09-19T13:41:13;1.95;;;1.17;;
76053;SDS011;64752;48.870;9.082;2023-09-19T13:43:39;2.83;;;1.27;;
76053;SDS011;64752;48.870;9.082;2023-09-19T13:46:04;4.00;;;1.30;;
76053;SDS011;64752;48.870;9.082;2023-09-19T13:48:32;2.05;;;1.10;;
76053;SDS011;64752;48.870;9.082;2023-09-19T13:51:00;1.95;;;1.00;;
76053;SDS011;64752;48.870;9.082;2023-09-19T13:53:26;1.73;;;1.20;;
76053;SDS011;64752;48.870;9.082;2023-09-19T13:55:52;2.17;;;1.00;;
76053;SDS011;64752;48.870;9.082;2023-09-19T13:58:17;3.53;;;1.10;;
76053;SDS011;64752;48.870;9.082;2023-09-19T14:00:43;2.57;;;1.30;;
76053;SDS011;64752;48.870;9.082;2023-09-19T14:03:08;2.47;;;1.23;;
76053;SDS011;64752;48.870;9.082;2023-09-19T14:05:35;4.75;;;1.20;;
76053;SDS011;64752;48.870;9.082;2023-09-19T14:08:01;2.23;;;1.30;;
76053;SDS011;64752;48.870;9.082;2023-09-19T14:10:28;2.38;;;1.23;;
76053;SDS011;64752;48.870;9.082;2023-09-19T14:12:56;3.63;;;1.20;;
76053;SDS011;64752;48.870;9.082;2023-09-19T14:15:24;1.75;;;1.00;;
76053;SDS011;64752;48.870;9.082;2023-09-19T14:17:54;3.10;;;1.27;;
76053;SDS011;64752;48.870;9.082;2023-09-19T14:20:24;0.90;;;0.80;;
76053;SDS011;64752;48.870;9.082;2023-09-19T14:22:54;1.45;;;1.05;;
76053;SDS011;64752;48.870;9.082;2023-09-19T14:25:20;1.70;;;1.00;;
76053;SDS011;64752;48.870;9.082;2023-09-19T14:27:46;4.23;;;1.33;;
76053;SDS011;64752;48.870;9.082;2023-09-19T14:30:13;1.67;;;1.08;;
76053;SDS011;64752;48.870;9.082;2023-09-19T14:32:38;3.35;;;1.10;;
76053;SDS011;64752;48.870;9.082;2023-09-19T14:35:04;2.87;;;1.30;;
76053;SDS011;64752;48.870;9.082;2023-09-19T14:37:31;2.92;;;1.27;;
76053;SDS011;64752;48.870;9.082;2023-09-19T14:39:56;2.40;;;1.13;;
76053;SDS011;64752;48.870;9.082;2023-09-19T14:42:21;2.67;;;1.13;;
76053;SDS011;64752;48.870;9.082;2023-09-19T14:44:47;3.15;;;1.42;;
76053;SDS011;64752;48.870;9.082;2023-09-19T14:47:13;4.15;;;1.45;;
76053;SDS011;64752;48.870;9.082;2023-09-19T14:49:39;1.13;;;1.00;;
76053;SDS011;64752;48.870;9.082;2023-09-19T14:52:08;2.67;;;1.17;;
76053;SDS011;64752;48.870;9.082;2023-09-19T14:54:35;2.90;;;1.10;;
76053;SDS011;64752;48.870;9.082;2023-09-19T14:57:02;1.73;;;1.00;;
76053;SDS011;64752;48.870;9.082;2023-09-19T14:59:33;1.48;;;1.00;;
76053;SDS011;64752;48.870;9.082;2023-09-19T15:02:03;3.20;;;1.00;;
76053;SDS011;64752;48.870;9.082;2023-09-19T15:04:29;3.15;;;1.05;;
76053;SDS011;64752;48.870;9.082;2023-09-19T15:06:54;1.13;;;0.90;;
76053;SDS011;64752;48.870;9.082;2023-09-19T15:09:21;1.50;;;0.90;;
76053;SDS011;64752;48.870;9.082;2023-09-19T15:11:49;1.00;;;0.90;;
76053;SDS011;64752;48.870;9.082;2023-09-19T15:14:15;2.42;;;1.10;;
76053;SDS011;64752;48.870;9.082;2023-09-19T15:16:40;2.77;;;1.10;;
76053;SDS011;64752;48.870;9.082;2023-09-19T15:19:07;2.08;;;1.05;;
76053;SDS011;64752;48.870;9.082;2023-09-19T15:21:33;2.10;;;1.00;;
76053;SDS011;64752;48.870;9.082;2023-09-19T15:23:58;2.53;;;0.97;;
76053;SDS011;64752;48.870;9.082;2023-09-19T15:26:24;2.67;;;1.13;;
76053;SDS011;64752;48.870;9.082;2023-09-19T15:31:16;1.38;;;0.90;;
76053;SDS011;64752;48.870;9.082;2023-09-19T15:33:41;2.87;;;1.10;;
76053;SDS011;64752;48.870;9.082;2023-09-19T15:36:10;2.53;;;1.00;;
76053;SDS011;64752;48.870;9.082;2023-09-19T15:41:22;2.60;;;1.10;;
76053;SDS011;64752;48.870;9.082;2023-09-19T15:43:47;1.63;;;1.43;;
76053;SDS011;64752;48.870;9.082;2023-09-19T15:46:12;3.43;;;2.03;;
76053;SDS011;64752;48.870;9.082;2023-09-19T15:48:41;1.50;;;0.88;;
76053;SDS011;64752;48.870;9.082;2023-09-19T15:51:06;4.80;;;0.98;;
76053;SDS011;64752;48.870;9.082;2023-09-19T15:53:44;2.67;;;0.90;;
76053;SDS011;64752;48.870;9.082;2023-09-19T15:56:11;2.70;;;1.00;;
76053;SDS011;64752;48.870;9.082;2023-09-19T15:58:40;2.20;;;0.88;;
76053;SDS011;64752;48.870;9.082;2023-09-19T16:01:06;3.20;;;0.90;;
76053;SDS011;64752;48.870;9.082;2023-09-19T16:03:38;1.10;;;0.85;;
76053;SDS011;64752;48.870;9.082;2023-09-19T16:06:12;0.75;;;0.73;;
76053;SDS011;64752;48.870;9.082;2023-09-19T16:08:39;0.93;;;0.75;;
76053;SDS011;64752;48.870;9.082;2023-09-19T16:11:05;1.80;;;1.00;;
76053;SDS011;64752;48.870;9.082;2023-09-19T16:13:31;1.83;;;0.93;;
76053;SDS011;64752;48.870;9.082;2023-09-19T16:15:57;1.37;;;1.03;;
76053;SDS011;64752;48.870;9.082;2023-09-19T16:18:23;2.05;;;0.88;;
76053;SDS011;64752;48.870;9.082;2023-09-19T16:20:48;1.47;;;1.00;;
76053;SDS011;64752;48.870;9.082;2023-09-19T16:23:13;2.50;;;0.87;;
76053;SDS011;64752;48.870;9.082;2023-09-19T16:25:39;2.13;;;0.87;;
76053;SDS011;64752;48.870;9.082;2023-09-19T16:28:05;2.53;;;1.30;;
76053;SDS011;64752;48.870;9.082;2023-09-19T16:30:31;1.73;;;1.00;;
76053;SDS011;64752;48.870;9.082;2023-09-19T16:32:59;2.67;;;1.10;;
76053;SDS011;64752;48.870;9.082;2023-09-19T16:35:24;1.57;;;0.87;;